sensor_id;sensor_type;location;lat;lon;timestamp;P1;durP1;ratioP1;P2;durP2;ratioP2
30096;SDS011;16915;51.466;3.610;2023-08-17T00:01:26;5.40;;;2.28;;
30096;SDS011;16915;51.466;3.610;2023-08-17T00:03:52;3.10;;;2.42;;
30096;SDS011;16915;51.466;3.610;2023-08-17T00:06:17;3.78;;;2.33;;
30096;SDS011;16915;51.466;3.610;2023-08-17T00:08:43;5.35;;;2.17;;
30096;SDS011;16915;51.466;3.610;2023-08-17T00:11:09;4.22;;;2.50;;
30096;SDS011;16915;51.466;3.610;2023-08-17T00:13:35;4.90;;;3.08;;
30096;SDS011;16915;51.466;3.610;2023-08-17T00:16:00;5.97;;;2.45;;
30096;SDS011;16915;51.466;3.610;2023-08-17T00:18:27;3.20;;;2.60;;
30096;SDS011;16915;51.466;3.610;2023-08-17T00:20:52;2.85;;;2.55;;
30096;SDS011;16915;51.466;3.610;2023-08-17T00:23:18;2.63;;;2.05;;
30096;SDS011;16915;51.466;3.610;2023-08-17T00:25:45;2.92;;;2.10;;
30096;SDS011;16915;51.466;3.610;2023-08-17T00:28:12;4.38;;;2.38;;
30096;SDS011;16915;51.466;3.610;2023-08-17T00:30:38;3.65;;;2.25;;
30096;SDS011;16915;51.466;3.610;2023-08-17T00:33:04;6.03;;;2.40;;
30096;SDS011;16915;51.466;3.610;2023-08-17T00:35:30;3.17;;;2.67;;
30096;SDS011;16915;51.466;3.610;2023-08-17T00:37:56;3.15;;;2.55;;
30096;SDS011;16915;51.466;3.610;2023-08-17T00:40:22;3.78;;;2.38;;
30096;SDS011;16915;51.466;3.610;2023-08-17T00:42:47;4.63;;;2.28;;
30096;SDS011;16915;51.466;3.610;2023-08-17T00:45:14;2.13;;;1.92;;
30096;SDS011;16915;51.466;3.610;2023-08-17T00:47:40;3.95;;;2.17;;
30096;SDS011;16915;51.466;3.610;2023-08-17T00:50:06;3.63;;;2.50;;
30096;SDS011;16915;51.466;3.610;2023-08-17T00:52:32;2.45;;;2.25;;
30096;SDS011;16915;51.466;3.610;2023-08-17T00:54:59;8.35;;;2.42;;
30096;SDS011;16915;51.466;3.610;2023-08-17T00:57:25;3.17;;;2.22;;
30096;SDS011;16915;51.466;3.610;2023-08-17T00:59:52;3.72;;;2.50;;
30096;SDS011;16915;51.466;3.610;2023-08-17T01:02:18;2.53;;;2.22;;
30096;SDS011;16915;51.466;3.610;2023-08-17T01:04:44;4.05;;;2.30;;
30096;SDS011;16915;51.466;3.610;2023-08-17T01:07:10;2.92;;;2.60;;
30096;SDS011;16915;51.466;3.610;2023-08-17T01:09:35;4.95;;;2.70;;
30096;SDS011;16915;51.466;3.610;2023-08-17T01:12:05;3.97;;;3.00;;
30096;SDS011;16915;51.466;3.610;2023-08-17T01:17:33;3.75;;;2.78;;
30096;SDS011;16915;51.466;3.610;2023-08-17T01:20:07;3.65;;;2.40;;
30096;SDS011;16915;51.466;3.610;2023-08-17T01:22:37;2.95;;;2.50;;
30096;SDS011;16915;51.466;3.610;2023-08-17T01:25:06;4.60;;;2.40;;
30096;SDS011;16915;51.466;3.610;2023-08-17T01:27:43;7.00;;;2.90;;
30096;SDS011;16915;51.466;3.610;2023-08-17T01:30:14;4.03;;;2.92;;
30096;SDS011;16915;51.466;3.610;2023-08-17T01:32:53;4.32;;;2.60;;
30096;SDS011;16915;51.466;3.610;2023-08-17T01:35:28;5.65;;;2.20;;
30096;SDS011;16915;51.466;3.610;2023-08-17T01:37:56;2.40;;;2.20;;
30096;SDS011;16915;51.466;3.610;2023-08-17T01:40:26;3.55;;;2.50;;
30096;SDS011;16915;51.466;3.610;2023-08-17T01:42:53;7.85;;;2.45;;
30096;SDS011;16915;51.466;3.610;2023-08-17T01:45:20;2.70;;;2.30;;
30096;SDS011;16915;51.466;3.610;2023-08-17T01:47:46;4.13;;;3.00;;
30096;SDS011;16915;51.466;3.610;2023-08-17T01:50:12;4.68;;;2.33;;
30096;SDS011;16915;51.466;3.610;2023-08-17T01:52:37;7.25;;;2.50;;
30096;SDS011;16915;51.466;3.610;2023-08-17T01:55:03;3.15;;;2.42;;
30096;SDS011;16915;51.466;3.610;2023-08-17T01:57:29;2.95;;;2.03;;
30096;SDS011;16915;51.466;3.610;2023-08-17T01:59:55;2.55;;;2.10;;
30096;SDS011;16915;51.466;3.610;2023-08-17T02:02:20;4.20;;;2.35;;
30096;SDS011;16915;51.466;3.610;2023-08-17T02:04:46;5.70;;;2.03;;
30096;SDS011;16915;51.466;3.610;2023-08-17T02:07:12;2.72;;;1.95;;
30096;SDS011;16915;51.466;3.610;2023-08-17T02:09:38;6.18;;;2.30;;
30096;SDS011;16915;51.466;3.610;2023-08-17T02:12:03;2.92;;;2.05;;
30096;SDS011;16915;51.466;3.610;2023-08-17T02:14:29;4.47;;;2.20;;
30096;SDS011;16915;51.466;3.610;2023-08-17T02:16:55;4.13;;;2.60;;
30096;SDS011;16915;51.466;3.610;2023-08-17T02:19:20;4.93;;;2.67;;
30096;SDS011;16915;51.466;3.610;2023-08-17T02:21:46;4.60;;;2.00;;
30096;SDS011;16915;51.466;3.610;2023-08-17T02:24:12;4.45;;;2.47;;
30096;SDS011;16915;51.466;3.610;2023-08-17T02:26:37;3.25;;;2.10;;
30096;SDS011;16915;51.466;3.610;2023-08-17T02:29:03;3.40;;;2.50;;
30096;SDS011;16915;51.466;3.610;2023-08-17T02:31:29;3.42;;;3.05;;
30096;SDS011;16915;51.466;3.610;2023-08-17T02:33:54;7.07;;;2.67;;
30096;SDS011;16915;51.466;3.610;2023-08-17T02:36:25;4.13;;;2.60;;
30096;SDS011;16915;51.466;3.610;2023-08-17T02:38:54;4.68;;;2.83;;
30096;SDS011;16915;51.466;3.610;2023-08-17T02:41:20;5.50;;;2.60;;
30096;SDS011;16915;51.466;3.610;2023-08-17T02:43:46;4.60;;;2.33;;
30096;SDS011;16915;51.466;3.610;2023-08-17T02:46:11;4.20;;;2.47;;
30096;SDS011;16915;51.466;3.610;2023-08-17T02:48:37;5.28;;;2.58;;
30096;SDS011;16915;51.466;3.610;2023-08-17T02:51:02;2.55;;;2.35;;
30096;SDS011;16915;51.466;3.610;2023-08-17T02:53:28;5.15;;;2.25;;
30096;SDS011;16915;51.466;3.610;2023-08-17T02:55:53;5.97;;;2.60;;
30096;SDS011;16915;51.466;3.610;2023-08-17T02:58:19;7.07;;;2.80;;
30096;SDS011;16915;51.466;3.610;2023-08-17T03:00:45;3.35;;;2.47;;
30096;SDS011;16915;51.466;3.610;2023-08-17T03:03:10;8.65;;;2.50;;
30096;SDS011;16915;51.466;3.610;2023-08-17T03:05:36;4.28;;;2.30;;
30096;SDS011;16915;51.466;3.610;2023-08-17T03:08:01;5.13;;;2.92;;
30096;SDS011;16915;51.466;3.610;2023-08-17T03:10:27;3.28;;;2.20;;
30096;SDS011;16915;51.466;3.610;2023-08-17T03:12:53;4.00;;;2.20;;
30096;SDS011;16915;51.466;3.610;2023-08-17T03:15:18;4.53;;;2.30;;
30096;SDS011;16915;51.466;3.610;2023-08-17T03:17:44;4.70;;;2.38;;
30096;SDS011;16915;51.466;3.610;2023-08-17T03:20:09;2.80;;;1.80;;
30096;SDS011;16915;51.466;3.610;2023-08-17T03:22:35;3.00;;;2.28;;
30096;SDS011;16915;51.466;3.610;2023-08-17T03:25:01;2.33;;;2.15;;
30096;SDS011;16915;51.466;3.610;2023-08-17T03:27:27;2.00;;;1.90;;
30096;SDS011;16915;51.466;3.610;2023-08-17T03:29:53;2.00;;;1.83;;
30096;SDS011;16915;51.466;3.610;2023-08-17T03:32:19;2.70;;;1.80;;
30096;SDS011;16915;51.466;3.610;2023-08-17T03:34:44;2.80;;;2.30;;
30096;SDS011;16915;51.466;3.610;2023-08-17T03:37:11;4.50;;;2.35;;
30096;SDS011;16915;51.466;3.610;2023-08-17T03:39:36;3.22;;;2.00;;
30096;SDS011;16915;51.466;3.610;2023-08-17T03:42:02;2.40;;;2.20;;
30096;SDS011;16915;51.466;3.610;2023-08-17T03:44:27;3.22;;;2.05;;
30096;SDS011;16915;51.466;3.610;2023-08-17T03:46:53;5.18;;;2.50;;
30096;SDS011;16915;51.466;3.610;2023-08-17T03:49:18;4.78;;;2.42;;
30096;SDS011;16915;51.466;3.610;2023-08-17T03:51:44;3.60;;;2.30;;
30096;SDS011;16915;51.466;3.610;2023-08-17T03:54:11;6.63;;;2.20;;
30096;SDS011;16915;51.466;3.610;2023-08-17T03:56:38;2.38;;;2.13;;
30096;SDS011;16915;51.466;3.610;2023-08-17T03:59:03;3.33;;;1.90;;
30096;SDS011;16915;51.466;3.610;2023-08-17T04:01:29;5.05;;;2.22;;
30096;SDS011;16915;51.466;3.610;2023-08-17T04:03:54;5.65;;;1.85;;
30096;SDS011;16915;51.466;3.610;2023-08-17T04:06:20;6.00;;;2.10;;
30096;SDS011;16915;51.466;3.610;2023-08-17T04:08:46;2.55;;;2.05;;
30096;SDS011;16915;51.466;3.610;2023-08-17T04:11:11;4.80;;;2.22;;
30096;SDS011;16915;51.466;3.610;2023-08-17T04:13:37;3.58;;;1.92;;
30096;SDS011;16915;51.466;3.610;2023-08-17T04:16:02;2.45;;;1.70;;
30096;SDS011;16915;51.466;3.610;2023-08-17T04:18:28;4.20;;;2.55;;
30096;SDS011;16915;51.466;3.610;2023-08-17T04:20:54;5.18;;;2.42;;
30096;SDS011;16915;51.466;3.610;2023-08-17T04:23:19;3.67;;;1.70;;
30096;SDS011;16915;51.466;3.610;2023-08-17T04:25:46;3.88;;;1.80;;
30096;SDS011;16915;51.466;3.610;2023-08-17T04:28:12;4.15;;;1.90;;
30096;SDS011;16915;51.466;3.610;2023-08-17T04:30:38;2.67;;;1.90;;
30096;SDS011;16915;51.466;3.610;2023-08-17T04:33:04;5.53;;;1.83;;
30096;SDS011;16915;51.466;3.610;2023-08-17T04:35:30;2.75;;;1.50;;
30096;SDS011;16915;51.466;3.610;2023-08-17T04:37:55;5.00;;;1.83;;
30096;SDS011;16915;51.466;3.610;2023-08-17T04:40:21;3.75;;;1.90;;
30096;SDS011;16915;51.466;3.610;2023-08-17T04:42:47;2.38;;;1.48;;
30096;SDS011;16915;51.466;3.610;2023-08-17T04:45:12;2.97;;;1.90;;
30096;SDS011;16915;51.466;3.610;2023-08-17T04:47:38;4.63;;;1.58;;
30096;SDS011;16915;51.466;3.610;2023-08-17T04:50:04;3.65;;;1.85;;
30096;SDS011;16915;51.466;3.610;2023-08-17T04:52:31;3.90;;;1.92;;
30096;SDS011;16915;51.466;3.610;2023-08-17T04:54:56;4.68;;;1.92;;
30096;SDS011;16915;51.466;3.610;2023-08-17T04:57:22;3.03;;;2.00;;
30096;SDS011;16915;51.466;3.610;2023-08-17T04:59:48;2.58;;;1.63;;
30096;SDS011;16915;51.466;3.610;2023-08-17T05:02:13;5.47;;;1.75;;
30096;SDS011;16915;51.466;3.610;2023-08-17T05:04:39;4.45;;;2.05;;
30096;SDS011;16915;51.466;3.610;2023-08-17T05:07:05;4.57;;;2.10;;
30096;SDS011;16915;51.466;3.610;2023-08-17T05:09:30;4.22;;;2.28;;
30096;SDS011;16915;51.466;3.610;2023-08-17T05:11:56;3.50;;;1.80;;
30096;SDS011;16915;51.466;3.610;2023-08-17T05:14:22;3.95;;;1.85;;
30096;SDS011;16915;51.466;3.610;2023-08-17T05:16:47;4.85;;;2.10;;
30096;SDS011;16915;51.466;3.610;2023-08-17T05:19:13;6.45;;;1.98;;
30096;SDS011;16915;51.466;3.610;2023-08-17T05:21:39;4.43;;;1.95;;
30096;SDS011;16915;51.466;3.610;2023-08-17T05:24:04;2.70;;;1.75;;
30096;SDS011;16915;51.466;3.610;2023-08-17T05:26:30;5.85;;;1.80;;
30096;SDS011;16915;51.466;3.610;2023-08-17T05:28:56;10.00;;;1.92;;
30096;SDS011;16915;51.466;3.610;2023-08-17T05:31:21;3.67;;;1.90;;
30096;SDS011;16915;51.466;3.610;2023-08-17T05:33:47;2.78;;;1.80;;
30096;SDS011;16915;51.466;3.610;2023-08-17T05:36:12;4.88;;;1.95;;
30096;SDS011;16915;51.466;3.610;2023-08-17T05:38:39;3.00;;;1.98;;
30096;SDS011;16915;51.466;3.610;2023-08-17T05:41:05;4.38;;;2.10;;
30096;SDS011;16915;51.466;3.610;2023-08-17T05:43:30;5.72;;;2.05;;
30096;SDS011;16915;51.466;3.610;2023-08-17T05:45:59;5.82;;;1.88;;
30096;SDS011;16915;51.466;3.610;2023-08-17T05:48:25;3.00;;;2.05;;
30096;SDS011;16915;51.466;3.610;2023-08-17T05:50:50;3.35;;;1.90;;
30096;SDS011;16915;51.466;3.610;2023-08-17T05:53:16;1.63;;;1.45;;
30096;SDS011;16915;51.466;3.610;2023-08-17T05:55:42;5.60;;;1.75;;
30096;SDS011;16915;51.466;3.610;2023-08-17T05:58:07;1.98;;;1.67;;
30096;SDS011;16915;51.466;3.610;2023-08-17T06:00:33;3.65;;;1.70;;
30096;SDS011;16915;51.466;3.610;2023-08-17T06:03:00;2.67;;;1.50;;
30096;SDS011;16915;51.466;3.610;2023-08-17T06:05:28;5.68;;;1.65;;
30096;SDS011;16915;51.466;3.610;2023-08-17T06:07:54;4.55;;;1.65;;
30096;SDS011;16915;51.466;3.610;2023-08-17T06:10:20;2.47;;;1.88;;
30096;SDS011;16915;51.466;3.610;2023-08-17T06:12:50;2.65;;;1.95;;
30096;SDS011;16915;51.466;3.610;2023-08-17T06:15:18;3.85;;;2.15;;
30096;SDS011;16915;51.466;3.610;2023-08-17T06:17:44;7.55;;;1.90;;
30096;SDS011;16915;51.466;3.610;2023-08-17T06:20:10;6.35;;;1.58;;
30096;SDS011;16915;51.466;3.610;2023-08-17T06:22:37;4.53;;;2.20;;
30096;SDS011;16915;51.466;3.610;2023-08-17T06:25:02;2.67;;;1.60;;
30096;SDS011;16915;51.466;3.610;2023-08-17T06:27:30;5.07;;;2.20;;
30096;SDS011;16915;51.466;3.610;2023-08-17T06:29:55;3.55;;;1.77;;
30096;SDS011;16915;51.466;3.610;2023-08-17T06:32:21;2.90;;;1.38;;
30096;SDS011;16915;51.466;3.610;2023-08-17T06:34:46;5.45;;;2.03;;
30096;SDS011;16915;51.466;3.610;2023-08-17T06:37:12;4.38;;;1.80;;
30096;SDS011;16915;51.466;3.610;2023-08-17T06:39:38;4.05;;;1.77;;
30096;SDS011;16915;51.466;3.610;2023-08-17T06:42:03;3.13;;;1.80;;
30096;SDS011;16915;51.466;3.610;2023-08-17T06:44:29;1.77;;;1.30;;
30096;SDS011;16915;51.466;3.610;2023-08-17T06:46:55;1.77;;;1.50;;
30096;SDS011;16915;51.466;3.610;2023-08-17T06:49:21;2.05;;;1.48;;
30096;SDS011;16915;51.466;3.610;2023-08-17T06:51:47;3.83;;;1.70;;
30096;SDS011;16915;51.466;3.610;2023-08-17T06:54:13;5.55;;;1.73;;
30096;SDS011;16915;51.466;3.610;2023-08-17T06:56:38;2.13;;;1.38;;
30096;SDS011;16915;51.466;3.610;2023-08-17T06:59:04;3.47;;;1.40;;
30096;SDS011;16915;51.466;3.610;2023-08-17T07:01:30;3.67;;;1.70;;
30096;SDS011;16915;51.466;3.610;2023-08-17T07:03:55;2.42;;;1.38;;
30096;SDS011;16915;51.466;3.610;2023-08-17T07:06:22;2.85;;;1.45;;
30096;SDS011;16915;51.466;3.610;2023-08-17T07:08:48;3.28;;;1.42;;
30096;SDS011;16915;51.466;3.610;2023-08-17T07:11:13;4.57;;;1.80;;
30096;SDS011;16915;51.466;3.610;2023-08-17T07:13:39;5.75;;;1.80;;
30096;SDS011;16915;51.466;3.610;2023-08-17T07:16:05;4.35;;;1.27;;
30096;SDS011;16915;51.466;3.610;2023-08-17T07:18:30;3.08;;;1.48;;
30096;SDS011;16915;51.466;3.610;2023-08-17T07:20:56;2.50;;;1.30;;
30096;SDS011;16915;51.466;3.610;2023-08-17T07:23:21;2.72;;;1.20;;
30096;SDS011;16915;51.466;3.610;2023-08-17T07:25:48;2.00;;;1.20;;
30096;SDS011;16915;51.466;3.610;2023-08-17T07:28:13;4.35;;;1.45;;
30096;SDS011;16915;51.466;3.610;2023-08-17T07:30:40;4.10;;;1.20;;
30096;SDS011;16915;51.466;3.610;2023-08-17T07:33:06;2.53;;;0.98;;
30096;SDS011;16915;51.466;3.610;2023-08-17T07:35:32;2.13;;;1.20;;
30096;SDS011;16915;51.466;3.610;2023-08-17T07:37:57;4.38;;;0.98;;
30096;SDS011;16915;51.466;3.610;2023-08-17T07:40:24;4.32;;;0.93;;
30096;SDS011;16915;51.466;3.610;2023-08-17T07:42:50;5.22;;;1.05;;
30096;SDS011;16915;51.466;3.610;2023-08-17T07:45:15;3.17;;;1.15;;
30096;SDS011;16915;51.466;3.610;2023-08-17T07:47:41;2.10;;;0.98;;
30096;SDS011;16915;51.466;3.610;2023-08-17T07:50:07;3.55;;;0.95;;
30096;SDS011;16915;51.466;3.610;2023-08-17T07:52:33;3.90;;;0.98;;
30096;SDS011;16915;51.466;3.610;2023-08-17T07:54:59;1.95;;;1.15;;
30096;SDS011;16915;51.466;3.610;2023-08-17T07:57:25;2.20;;;1.10;;
30096;SDS011;16915;51.466;3.610;2023-08-17T07:59:50;2.33;;;1.08;;
30096;SDS011;16915;51.466;3.610;2023-08-17T08:02:16;5.82;;;1.50;;
30096;SDS011;16915;51.466;3.610;2023-08-17T08:04:42;2.97;;;1.10;;
30096;SDS011;16915;51.466;3.610;2023-08-17T08:07:08;1.88;;;1.17;;
30096;SDS011;16915;51.466;3.610;2023-08-17T08:09:34;3.78;;;1.13;;
30096;SDS011;16915;51.466;3.610;2023-08-17T08:12:00;4.85;;;1.35;;
30096;SDS011;16915;51.466;3.610;2023-08-17T08:14:27;3.95;;;1.40;;
30096;SDS011;16915;51.466;3.610;2023-08-17T08:16:52;4.00;;;1.20;;
30096;SDS011;16915;51.466;3.610;2023-08-17T08:19:18;3.13;;;1.10;;
30096;SDS011;16915;51.466;3.610;2023-08-17T08:21:44;2.90;;;1.52;;
30096;SDS011;16915;51.466;3.610;2023-08-17T08:24:09;2.72;;;1.27;;
30096;SDS011;16915;51.466;3.610;2023-08-17T08:26:35;4.18;;;1.20;;
30096;SDS011;16915;51.466;3.610;2023-08-17T08:29:00;2.78;;;1.05;;
30096;SDS011;16915;51.466;3.610;2023-08-17T08:31:26;3.30;;;1.30;;
30096;SDS011;16915;51.466;3.610;2023-08-17T08:33:51;2.70;;;1.20;;
30096;SDS011;16915;51.466;3.610;2023-08-17T08:36:18;3.35;;;1.00;;
30096;SDS011;16915;51.466;3.610;2023-08-17T08:38:43;2.75;;;1.20;;
30096;SDS011;16915;51.466;3.610;2023-08-17T08:41:10;1.65;;;1.02;;
30096;SDS011;16915;51.466;3.610;2023-08-17T08:43:36;5.20;;;1.35;;
30096;SDS011;16915;51.466;3.610;2023-08-17T08:46:03;3.95;;;2.38;;
30096;SDS011;16915;51.466;3.610;2023-08-17T08:48:30;4.75;;;1.50;;
30096;SDS011;16915;51.466;3.610;2023-08-17T08:50:57;4.05;;;1.60;;
30096;SDS011;16915;51.466;3.610;2023-08-17T08:53:32;2.22;;;1.20;;
30096;SDS011;16915;51.466;3.610;2023-08-17T08:56:04;1.75;;;1.17;;
30096;SDS011;16915;51.466;3.610;2023-08-17T08:58:32;2.67;;;1.50;;
30096;SDS011;16915;51.466;3.610;2023-08-17T09:00:59;3.50;;;1.52;;
30096;SDS011;16915;51.466;3.610;2023-08-17T09:03:27;6.30;;;1.90;;
30096;SDS011;16915;51.466;3.610;2023-08-17T09:05:53;1.73;;;1.20;;
30096;SDS011;16915;51.466;3.610;2023-08-17T09:08:24;3.28;;;1.50;;
30096;SDS011;16915;51.466;3.610;2023-08-17T09:10:52;3.13;;;1.27;;
30096;SDS011;16915;51.466;3.610;2023-08-17T09:13:18;2.28;;;1.52;;
30096;SDS011;16915;51.466;3.610;2023-08-17T09:15:44;3.72;;;1.60;;
30096;SDS011;16915;51.466;3.610;2023-08-17T09:18:09;4.40;;;1.48;;
30096;SDS011;16915;51.466;3.610;2023-08-17T09:20:36;6.85;;;1.90;;
30096;SDS011;16915;51.466;3.610;2023-08-17T09:23:05;3.10;;;1.58;;
30096;SDS011;16915;51.466;3.610;2023-08-17T09:25:37;3.97;;;1.80;;
30096;SDS011;16915;51.466;3.610;2023-08-17T09:28:14;3.30;;;1.60;;
30096;SDS011;16915;51.466;3.610;2023-08-17T09:30:54;3.65;;;1.70;;
30096;SDS011;16915;51.466;3.610;2023-08-17T09:33:22;4.10;;;1.73;;
30096;SDS011;16915;51.466;3.610;2023-08-17T09:35:50;5.38;;;1.92;;
30096;SDS011;16915;51.466;3.610;2023-08-17T09:38:16;4.07;;;1.75;;
30096;SDS011;16915;51.466;3.610;2023-08-17T09:40:43;3.55;;;1.95;;
30096;SDS011;16915;51.466;3.610;2023-08-17T09:43:09;5.10;;;2.85;;
30096;SDS011;16915;51.466;3.610;2023-08-17T09:45:38;4.53;;;2.00;;
30096;SDS011;16915;51.466;3.610;2023-08-17T09:48:05;4.38;;;2.05;;
30096;SDS011;16915;51.466;3.610;2023-08-17T09:50:32;4.10;;;2.03;;
30096;SDS011;16915;51.466;3.610;2023-08-17T09:52:58;4.53;;;2.20;;
30096;SDS011;16915;51.466;3.610;2023-08-17T09:55:24;2.55;;;2.08;;
30096;SDS011;16915;51.466;3.610;2023-08-17T09:57:50;3.42;;;1.80;;
30096;SDS011;16915;51.466;3.610;2023-08-17T10:00:20;6.35;;;2.40;;
30096;SDS011;16915;51.466;3.610;2023-08-17T10:02:47;3.58;;;2.53;;
30096;SDS011;16915;51.466;3.610;2023-08-17T10:05:17;5.00;;;2.50;;
30096;SDS011;16915;51.466;3.610;2023-08-17T10:07:46;4.38;;;2.70;;
30096;SDS011;16915;51.466;3.610;2023-08-17T10:10:16;4.00;;;2.40;;
30096;SDS011;16915;51.466;3.610;2023-08-17T10:13:09;4.95;;;2.40;;
30096;SDS011;16915;51.466;3.610;2023-08-17T10:15:37;5.60;;;2.65;;
30096;SDS011;16915;51.466;3.610;2023-08-17T10:21:05;4.45;;;2.42;;
30096;SDS011;16915;51.466;3.610;2023-08-17T10:23:35;5.80;;;2.40;;
30096;SDS011;16915;51.466;3.610;2023-08-17T10:26:02;5.32;;;2.60;;
30096;SDS011;16915;51.466;3.610;2023-08-17T10:28:28;4.32;;;2.38;;
30096;SDS011;16915;51.466;3.610;2023-08-17T10:30:56;6.22;;;2.42;;
30096;SDS011;16915;51.466;3.610;2023-08-17T10:33:22;4.40;;;2.40;;
30096;SDS011;16915;51.466;3.610;2023-08-17T10:35:49;5.65;;;2.42;;
30096;SDS011;16915;51.466;3.610;2023-08-17T10:38:16;6.63;;;2.60;;
30096;SDS011;16915;51.466;3.610;2023-08-17T10:40:42;7.05;;;2.30;;
30096;SDS011;16915;51.466;3.610;2023-08-17T10:43:08;6.97;;;2.60;;
30096;SDS011;16915;51.466;3.610;2023-08-17T10:45:34;4.03;;;2.53;;
30096;SDS011;16915;51.466;3.610;2023-08-17T10:50:34;3.47;;;3.00;;
30096;SDS011;16915;51.466;3.610;2023-08-17T10:53:08;5.97;;;2.90;;
30096;SDS011;16915;51.466;3.610;2023-08-17T10:55:39;5.22;;;2.40;;
30096;SDS011;16915;51.466;3.610;2023-08-17T10:58:15;7.97;;;2.40;;
30096;SDS011;16915;51.466;3.610;2023-08-17T11:00:41;3.22;;;2.33;;
30096;SDS011;16915;51.466;3.610;2023-08-17T11:03:19;5.07;;;2.70;;
30096;SDS011;16915;51.466;3.610;2023-08-17T11:08:20;2.50;;;2.30;;
30096;SDS011;16915;51.466;3.610;2023-08-17T11:11:20;3.35;;;2.95;;
30096;SDS011;16915;51.466;3.610;2023-08-17T11:13:47;6.43;;;2.53;;
30096;SDS011;16915;51.466;3.610;2023-08-17T11:16:14;5.90;;;2.78;;
30096;SDS011;16915;51.466;3.610;2023-08-17T11:18:40;6.05;;;2.30;;
30096;SDS011;16915;51.466;3.610;2023-08-17T11:21:06;7.05;;;2.50;;
30096;SDS011;16915;51.466;3.610;2023-08-17T11:23:34;7.43;;;2.88;;
30096;SDS011;16915;51.466;3.610;2023-08-17T11:26:01;4.43;;;2.20;;
30096;SDS011;16915;51.466;3.610;2023-08-17T11:28:29;4.00;;;2.90;;
30096;SDS011;16915;51.466;3.610;2023-08-17T11:31:01;4.90;;;3.03;;
30096;SDS011;16915;51.466;3.610;2023-08-17T11:33:28;3.78;;;2.88;;
30096;SDS011;16915;51.466;3.610;2023-08-17T11:35:55;3.92;;;2.35;;
30096;SDS011;16915;51.466;3.610;2023-08-17T11:38:21;6.20;;;2.63;;
30096;SDS011;16915;51.466;3.610;2023-08-17T11:40:48;8.70;;;2.85;;
30096;SDS011;16915;51.466;3.610;2023-08-17T11:43:14;5.93;;;2.70;;
30096;SDS011;16915;51.466;3.610;2023-08-17T11:45:40;5.25;;;2.55;;
30096;SDS011;16915;51.466;3.610;2023-08-17T11:48:06;4.68;;;2.95;;
30096;SDS011;16915;51.466;3.610;2023-08-17T11:50:32;5.63;;;3.20;;
30096;SDS011;16915;51.466;3.610;2023-08-17T11:53:01;5.65;;;2.70;;
30096;SDS011;16915;51.466;3.610;2023-08-17T11:55:27;6.97;;;3.45;;
30096;SDS011;16915;51.466;3.610;2023-08-17T11:57:52;5.40;;;3.00;;
30096;SDS011;16915;51.466;3.610;2023-08-17T12:00:18;7.20;;;3.20;;
30096;SDS011;16915;51.466;3.610;2023-08-17T12:02:49;5.30;;;3.20;;
30096;SDS011;16915;51.466;3.610;2023-08-17T12:05:21;6.85;;;3.15;;
30096;SDS011;16915;51.466;3.610;2023-08-17T12:07:49;4.05;;;2.90;;
30096;SDS011;16915;51.466;3.610;2023-08-17T12:10:15;4.53;;;3.08;;
30096;SDS011;16915;51.466;3.610;2023-08-17T12:12:43;6.65;;;3.50;;
30096;SDS011;16915;51.466;3.610;2023-08-17T12:15:09;3.72;;;2.78;;
30096;SDS011;16915;51.466;3.610;2023-08-17T12:17:40;5.25;;;2.55;;
30096;SDS011;16915;51.466;3.610;2023-08-17T12:20:19;7.82;;;2.55;;
30096;SDS011;16915;51.466;3.610;2023-08-17T12:22:46;3.83;;;2.47;;
30096;SDS011;16915;51.466;3.610;2023-08-17T12:25:12;4.97;;;3.30;;
30096;SDS011;16915;51.466;3.610;2023-08-17T12:27:38;3.25;;;2.92;;
30096;SDS011;16915;51.466;3.610;2023-08-17T12:30:04;4.60;;;2.80;;
30096;SDS011;16915;51.466;3.610;2023-08-17T12:32:36;6.95;;;3.20;;
30096;SDS011;16915;51.466;3.610;2023-08-17T12:35:02;6.15;;;2.80;;
30096;SDS011;16915;51.466;3.610;2023-08-17T12:37:28;5.50;;;2.97;;
30096;SDS011;16915;51.466;3.610;2023-08-17T12:39:54;3.28;;;2.70;;
30096;SDS011;16915;51.466;3.610;2023-08-17T12:42:20;8.27;;;2.97;;
30096;SDS011;16915;51.466;3.610;2023-08-17T12:44:45;7.47;;;3.78;;
30096;SDS011;16915;51.466;3.610;2023-08-17T12:47:11;6.53;;;4.10;;
30096;SDS011;16915;51.466;3.610;2023-08-17T12:49:36;6.15;;;3.45;;
30096;SDS011;16915;51.466;3.610;2023-08-17T12:52:02;6.28;;;3.35;;
30096;SDS011;16915;51.466;3.610;2023-08-17T12:54:28;5.15;;;3.38;;
30096;SDS011;16915;51.466;3.610;2023-08-17T12:56:53;4.03;;;3.35;;
30096;SDS011;16915;51.466;3.610;2023-08-17T12:59:19;8.02;;;4.13;;
30096;SDS011;16915;51.466;3.610;2023-08-17T13:01:44;7.40;;;4.32;;
30096;SDS011;16915;51.466;3.610;2023-08-17T13:04:10;6.97;;;4.65;;
30096;SDS011;16915;51.466;3.610;2023-08-17T13:06:36;5.28;;;3.78;;
30096;SDS011;16915;51.466;3.610;2023-08-17T13:09:01;7.35;;;4.32;;
30096;SDS011;16915;51.466;3.610;2023-08-17T13:11:27;6.30;;;4.85;;
30096;SDS011;16915;51.466;3.610;2023-08-17T13:13:53;7.18;;;4.72;;
30096;SDS011;16915;51.466;3.610;2023-08-17T13:16:18;7.90;;;5.15;;
30096;SDS011;16915;51.466;3.610;2023-08-17T13:18:44;9.05;;;4.30;;
30096;SDS011;16915;51.466;3.610;2023-08-17T13:21:09;8.18;;;4.78;;
30096;SDS011;16915;51.466;3.610;2023-08-17T13:23:35;7.10;;;4.68;;
30096;SDS011;16915;51.466;3.610;2023-08-17T13:26:00;5.45;;;4.75;;
30096;SDS011;16915;51.466;3.610;2023-08-17T13:28:26;9.20;;;4.75;;
30096;SDS011;16915;51.466;3.610;2023-08-17T13:30:51;5.50;;;4.60;;
30096;SDS011;16915;51.466;3.610;2023-08-17T13:33:17;6.25;;;5.40;;
30096;SDS011;16915;51.466;3.610;2023-08-17T13:35:43;9.65;;;5.32;;
30096;SDS011;16915;51.466;3.610;2023-08-17T13:38:08;7.50;;;5.00;;
30096;SDS011;16915;51.466;3.610;2023-08-17T13:40:34;7.20;;;5.47;;
30096;SDS011;16915;51.466;3.610;2023-08-17T13:43:01;10.20;;;6.20;;
30096;SDS011;16915;51.466;3.610;2023-08-17T13:45:28;8.40;;;5.32;;
30096;SDS011;16915;51.466;3.610;2023-08-17T13:47:53;7.18;;;5.25;;
30096;SDS011;16915;51.466;3.610;2023-08-17T13:50:19;9.32;;;5.35;;
30096;SDS011;16915;51.466;3.610;2023-08-17T13:52:45;9.52;;;5.60;;
30096;SDS011;16915;51.466;3.610;2023-08-17T13:55:11;10.43;;;5.85;;
30096;SDS011;16915;51.466;3.610;2023-08-17T13:57:37;8.05;;;5.68;;
30096;SDS011;16915;51.466;3.610;2023-08-17T14:00:03;6.53;;;5.63;;
30096;SDS011;16915;51.466;3.610;2023-08-17T14:02:29;5.53;;;5.03;;
30096;SDS011;16915;51.466;3.610;2023-08-17T14:04:55;9.52;;;5.30;;
30096;SDS011;16915;51.466;3.610;2023-08-17T14:07:20;9.93;;;5.53;;
30096;SDS011;16915;51.466;3.610;2023-08-17T14:09:46;9.45;;;5.43;;
30096;SDS011;16915;51.466;3.610;2023-08-17T14:12:12;9.10;;;5.10;;
30096;SDS011;16915;51.466;3.610;2023-08-17T14:14:37;5.95;;;5.07;;
30096;SDS011;16915;51.466;3.610;2023-08-17T14:17:03;8.32;;;5.10;;
30096;SDS011;16915;51.466;3.610;2023-08-17T14:19:28;6.78;;;5.28;;
30096;SDS011;16915;51.466;3.610;2023-08-17T14:21:54;6.85;;;5.43;;
30096;SDS011;16915;51.466;3.610;2023-08-17T14:24:20;8.90;;;5.88;;
30096;SDS011;16915;51.466;3.610;2023-08-17T14:26:45;6.68;;;5.82;;
30096;SDS011;16915;51.466;3.610;2023-08-17T14:29:11;7.30;;;5.10;;
30096;SDS011;16915;51.466;3.610;2023-08-17T14:31:36;6.45;;;5.00;;
30096;SDS011;16915;51.466;3.610;2023-08-17T14:34:02;8.02;;;5.32;;
30096;SDS011;16915;51.466;3.610;2023-08-17T14:36:28;10.10;;;5.35;;
30096;SDS011;16915;51.466;3.610;2023-08-17T14:38:53;16.60;;;5.80;;
30096;SDS011;16915;51.466;3.610;2023-08-17T14:41:19;8.05;;;5.07;;
30096;SDS011;16915;51.466;3.610;2023-08-17T14:43:44;8.10;;;5.40;;
30096;SDS011;16915;51.466;3.610;2023-08-17T14:46:10;7.57;;;5.47;;
30096;SDS011;16915;51.466;3.610;2023-08-17T14:48:35;8.18;;;5.28;;
30096;SDS011;16915;51.466;3.610;2023-08-17T14:51:01;6.75;;;5.50;;
30096;SDS011;16915;51.466;3.610;2023-08-17T14:53:27;8.68;;;5.22;;
30096;SDS011;16915;51.466;3.610;2023-08-17T14:55:53;9.13;;;4.82;;